createdAt,value
2023-01-12T00:00:23.242Z,0.00
2023-01-12T00:01:23.386Z,0.00
2023-01-12T00:02:23.633Z,0.00
2023-01-12T00:03:23.743Z,0.00
2023-01-12T00:04:24.070Z,0.00
2023-01-12T00:05:24.109Z,0.00
2023-01-12T00:06:24.266Z,0.00
2023-01-12T00:07:24.435Z,0.00
2023-01-12T00:08:24.589Z,0.00
2023-01-12T00:09:24.744Z,0.00
2023-01-12T00:10:24.945Z,0.00
2023-01-12T00:11:25.111Z,0.00
2023-01-12T00:12:25.262Z,0.00
2023-01-12T00:13:25.469Z,0.00
2023-01-12T00:14:25.643Z,0.00
2023-01-12T00:15:25.790Z,0.00
2023-01-12T00:16:26.269Z,0.00
2023-01-12T00:17:26.128Z,0.00
2023-01-12T00:18:26.271Z,0.00
2023-01-12T00:19:26.459Z,0.00
2023-01-12T00:20:26.627Z,0.00
2023-01-12T00:21:26.795Z,0.00
2023-01-12T00:22:26.957Z,0.00
2023-01-12T00:23:27.131Z,0.00
2023-01-12T00:24:27.301Z,0.00
2023-01-12T00:25:27.501Z,0.00
2023-01-12T00:26:27.717Z,0.00
2023-01-12T00:27:27.804Z,0.00
2023-01-12T00:28:28.020Z,0.00
2023-01-12T00:29:28.174Z,0.00
2023-01-12T00:30:28.379Z,0.00
2023-01-12T00:31:28.566Z,0.00
2023-01-12T00:32:28.712Z,0.00
2023-01-12T00:33:28.889Z,0.00
2023-01-12T00:34:29.770Z,0.00
2023-01-12T00:35:29.258Z,0.00
2023-01-12T00:36:29.408Z,0.00
2023-01-12T00:37:29.601Z,0.00
2023-01-12T00:38:29.776Z,0.00
2023-01-12T00:39:29.937Z,0.00
2023-01-12T00:40:30.163Z,0.00
2023-01-12T00:41:30.289Z,0.00
2023-01-12T00:42:30.470Z,0.00
2023-01-12T00:43:30.616Z,0.00
2023-01-12T00:44:30.789Z,0.00
2023-01-12T00:45:30.948Z,0.00
2023-01-12T00:46:31.166Z,0.00
2023-01-12T00:47:31.304Z,0.00
2023-01-12T00:48:31.472Z,0.00
2023-01-12T00:49:31.657Z,0.00
2023-01-12T00:50:31.815Z,0.00
2023-01-12T00:51:31.990Z,0.00
2023-01-12T00:52:32.317Z,0.00
2023-01-12T00:53:32.375Z,0.00
2023-01-12T00:54:32.542Z,0.00
2023-01-12T00:55:32.680Z,0.00
2023-01-12T00:56:32.838Z,0.00
2023-01-12T00:57:33.021Z,0.00
2023-01-12T00:58:33.466Z,0.00
2023-01-12T00:59:33.407Z,0.00
2023-01-12T01:00:33.580Z,0.00
2023-01-12T01:01:33.869Z,0.00
2023-01-12T01:02:33.960Z,0.00
2023-01-12T01:03:34.108Z,0.00
2023-01-12T01:04:34.257Z,0.00
2023-01-12T01:05:34.400Z,0.00
2023-01-12T01:06:34.587Z,0.00
2023-01-12T01:07:34.764Z,0.00
2023-01-12T01:08:34.948Z,0.00
2023-01-12T01:09:35.107Z,0.00
2023-01-12T01:10:35.268Z,0.00
2023-01-12T01:11:35.443Z,0.00
2023-01-12T01:12:35.653Z,0.00
2023-01-12T01:13:35.807Z,0.00
2023-01-12T01:14:35.946Z,0.00
2023-01-12T01:15:36.162Z,0.00
2023-01-12T01:16:36.296Z,0.00
2023-01-12T01:17:36.480Z,0.00
2023-01-12T01:18:36.620Z,0.00
2023-01-12T01:19:36.868Z,0.00
2023-01-12T01:20:36.967Z,0.00
2023-01-12T01:21:37.150Z,0.00
2023-01-12T01:22:37.371Z,0.00
2023-01-12T01:23:37.500Z,0.00
2023-01-12T01:24:37.704Z,0.00
2023-01-12T01:25:37.875Z,0.00
2023-01-12T01:26:38.038Z,0.00
2023-01-12T01:27:38.217Z,0.00
2023-01-12T01:28:38.384Z,0.00
2023-01-12T01:29:38.532Z,0.00
2023-01-12T01:30:38.717Z,0.00
2023-01-12T01:31:38.908Z,0.00
2023-01-12T01:32:39.095Z,0.00
2023-01-12T01:33:39.240Z,0.00
2023-01-12T01:34:39.444Z,0.00
2023-01-12T01:35:39.599Z,0.00
2023-01-12T01:36:39.796Z,0.00
2023-01-12T01:37:40.037Z,0.00
2023-01-12T01:38:40.170Z,0.00
2023-01-12T01:39:40.354Z,0.00
2023-01-12T01:40:40.544Z,0.00
2023-01-12T01:41:43.491Z,0.00
2023-01-12T01:42:40.928Z,0.00
2023-01-12T01:43:41.068Z,0.00
2023-01-12T01:44:41.271Z,0.00
2023-01-12T01:45:41.465Z,0.00
2023-01-12T01:46:41.629Z,0.00
2023-01-12T01:47:41.842Z,0.00
2023-01-12T01:48:41.963Z,0.00
2023-01-12T01:49:42.148Z,0.00
2023-01-12T01:50:42.334Z,0.00
2023-01-12T01:51:42.527Z,0.00
2023-01-12T01:52:42.685Z,0.00
2023-01-12T01:53:42.859Z,0.00
2023-01-12T01:54:43.078Z,0.00
2023-01-12T01:55:43.234Z,0.00
2023-01-12T01:56:43.375Z,0.00
2023-01-12T01:57:43.576Z,0.00
2023-01-12T01:58:43.756Z,0.00
2023-01-12T01:59:43.958Z,0.00
2023-01-12T02:00:44.099Z,0.00
2023-01-12T02:01:44.298Z,0.00
2023-01-12T02:02:44.500Z,0.00
2023-01-12T02:03:44.611Z,0.00
2023-01-12T02:04:44.814Z,0.00
2023-01-12T02:05:44.959Z,0.00
2023-01-12T02:06:45.144Z,0.00
2023-01-12T02:07:45.325Z,0.00
2023-01-12T02:08:45.514Z,0.00
2023-01-12T02:09:45.704Z,0.00
2023-01-12T02:10:45.850Z,0.00
2023-01-12T02:11:46.041Z,0.00
2023-01-12T02:12:46.237Z,0.00
2023-01-12T02:13:46.408Z,0.00
2023-01-12T02:14:46.661Z,0.00
2023-01-12T02:15:46.840Z,0.00
2023-01-12T02:16:46.955Z,0.00
2023-01-12T02:17:47.133Z,0.00
2023-01-12T02:18:47.301Z,0.00
2023-01-12T02:19:47.521Z,0.00
2023-01-12T02:20:47.661Z,0.00
2023-01-12T02:21:47.859Z,0.00
2023-01-12T02:22:48.039Z,0.00
2023-01-12T02:23:48.216Z,0.00
2023-01-12T02:24:48.414Z,0.00
2023-01-12T02:25:48.555Z,0.00
2023-01-12T02:26:48.736Z,0.00
2023-01-12T02:27:48.918Z,0.00
2023-01-12T02:28:49.102Z,0.00
2023-01-12T02:29:49.313Z,0.00
2023-01-12T02:30:49.465Z,0.00
2023-01-12T02:31:49.605Z,0.00
2023-01-12T02:32:49.784Z,0.00
2023-01-12T02:33:49.985Z,0.00
2023-01-12T02:34:50.222Z,0.00
2023-01-12T02:35:50.332Z,0.00
2023-01-12T02:36:50.476Z,0.00
2023-01-12T02:37:50.673Z,0.00
2023-01-12T02:38:50.839Z,0.00
2023-01-12T02:39:51.036Z,0.00
2023-01-12T02:40:51.177Z,0.00
2023-01-12T02:41:51.385Z,0.00
2023-01-12T02:42:51.530Z,0.00
2023-01-12T02:43:51.720Z,0.00
2023-01-12T02:44:51.859Z,0.00
2023-01-12T02:45:52.084Z,0.00
2023-01-12T02:46:52.322Z,0.00
2023-01-12T02:47:52.396Z,0.00
2023-01-12T02:48:52.589Z,0.00
2023-01-12T02:49:52.760Z,0.00
2023-01-12T02:50:52.934Z,0.00
2023-01-12T02:51:53.141Z,0.00
2023-01-12T02:52:53.279Z,0.00
2023-01-12T02:53:53.479Z,0.00
2023-01-12T02:54:53.664Z,0.00
2023-01-12T02:55:53.867Z,0.00
2023-01-12T02:56:53.996Z,0.00
2023-01-12T02:57:54.195Z,0.00
2023-01-12T02:58:54.373Z,0.00
2023-01-12T02:59:54.568Z,0.00
2023-01-12T03:00:54.894Z,0.00
2023-01-12T03:01:54.942Z,0.00
2023-01-12T03:02:55.104Z,0.00
2023-01-12T03:03:55.264Z,0.00
2023-01-12T03:04:55.456Z,0.00
2023-01-12T03:05:55.627Z,0.00
2023-01-12T03:06:55.810Z,0.00
2023-01-12T03:07:56.003Z,0.00
2023-01-12T03:08:56.165Z,0.00
2023-01-12T03:09:56.308Z,0.00
2023-01-12T03:10:56.499Z,0.00
2023-01-12T03:11:56.684Z,0.00
2023-01-12T03:12:56.827Z,0.00
2023-01-12T03:13:57.034Z,0.00
2023-01-12T03:14:57.206Z,0.00
2023-01-12T03:15:57.438Z,0.00
2023-01-12T03:16:57.586Z,0.00
2023-01-12T03:17:57.680Z,0.00
2023-01-12T03:18:57.850Z,0.00
2023-01-12T03:19:58.034Z,0.00
2023-01-12T03:20:58.220Z,0.00
2023-01-12T03:21:58.430Z,0.00
2023-01-12T03:22:58.569Z,0.00
2023-01-12T03:23:58.759Z,0.00
2023-01-12T03:24:58.949Z,0.00
2023-01-12T03:25:59.133Z,0.00
2023-01-12T03:26:59.334Z,0.00
2023-01-12T03:27:59.536Z,0.00
2023-01-12T03:28:59.671Z,0.00
2023-01-12T03:29:59.859Z,0.00
2023-01-12T03:31:00.046Z,0.00
2023-01-12T03:32:00.253Z,0.00
2023-01-12T03:33:00.402Z,0.00
2023-01-12T03:34:00.578Z,0.00
2023-01-12T03:35:00.750Z,0.00
2023-01-12T03:36:00.947Z,0.00
2023-01-12T03:37:01.156Z,0.00
2023-01-12T03:38:01.294Z,0.00
2023-01-12T03:39:01.483Z,0.00
2023-01-12T03:40:01.653Z,0.00
2023-01-12T03:41:01.842Z,0.00
2023-01-12T03:42:02.066Z,0.00
2023-01-12T03:43:02.184Z,0.00
2023-01-12T03:44:02.357Z,0.00
2023-01-12T03:45:02.547Z,0.00
2023-01-12T03:46:02.727Z,0.00
2023-01-12T03:47:03.032Z,0.00
2023-01-12T03:48:03.075Z,0.00
2023-01-12T03:49:03.260Z,0.00
2023-01-12T03:50:03.481Z,0.00
2023-01-12T03:51:03.622Z,0.00
2023-01-12T03:52:03.826Z,0.00
2023-01-12T03:53:03.998Z,0.00
2023-01-12T03:54:04.188Z,0.00
2023-01-12T03:55:04.359Z,0.00
2023-01-12T03:56:04.558Z,0.00
2023-01-12T03:57:04.747Z,0.00
2023-01-12T03:58:04.890Z,0.00
2023-01-12T03:59:05.085Z,0.00
2023-01-12T04:00:05.304Z,0.00
2023-01-12T04:01:05.559Z,0.00
2023-01-12T04:02:05.604Z,0.00
2023-01-12T04:03:05.811Z,0.00
2023-01-12T04:04:05.952Z,0.00
2023-01-12T04:05:06.149Z,0.00
2023-01-12T04:06:06.293Z,0.00
2023-01-12T04:07:06.469Z,0.00
2023-01-12T04:08:06.667Z,0.00
2023-01-12T04:09:06.855Z,0.00
2023-01-12T04:10:07.002Z,0.00
2023-01-12T04:11:07.212Z,0.00
2023-01-12T04:12:07.370Z,0.00
2023-01-12T04:13:07.558Z,0.00
2023-01-12T04:14:07.742Z,0.00
2023-01-12T04:15:07.920Z,0.00
2023-01-12T04:16:08.095Z,0.00
2023-01-12T04:17:08.261Z,0.00
2023-01-12T04:18:08.444Z,0.00
2023-01-12T04:19:08.617Z,0.00
2023-01-12T04:20:08.831Z,0.00
2023-01-12T04:21:08.999Z,0.00
2023-01-12T04:22:09.183Z,0.00
2023-01-12T04:23:09.383Z,0.00
2023-01-12T04:24:09.579Z,0.00
2023-01-12T04:25:10.036Z,0.00
2023-01-12T04:26:09.901Z,0.00
2023-01-12T04:27:10.192Z,0.00
2023-01-12T04:28:10.299Z,0.00
2023-01-12T04:29:10.428Z,0.00
2023-01-12T04:30:10.648Z,0.00
2023-01-12T04:31:10.797Z,0.00
2023-01-12T04:32:10.994Z,0.00
2023-01-12T04:33:11.182Z,0.00
2023-01-12T04:34:11.339Z,0.00
2023-01-12T04:35:11.508Z,0.00
2023-01-12T04:36:11.700Z,0.00
2023-01-12T04:37:11.848Z,0.00
2023-01-12T04:38:12.047Z,0.00
2023-01-12T04:39:12.223Z,0.00
2023-01-12T04:40:12.398Z,0.00
2023-01-12T04:41:12.549Z,0.00
2023-01-12T04:42:12.758Z,0.00
2023-01-12T04:43:12.920Z,0.00
2023-01-12T04:44:13.066Z,0.00
2023-01-12T04:45:13.258Z,0.00
2023-01-12T04:46:13.471Z,0.00
2023-01-12T04:47:13.600Z,0.00
2023-01-12T04:48:13.802Z,0.00
2023-01-12T04:49:13.943Z,0.00
2023-01-12T04:50:14.157Z,0.00
2023-01-12T04:51:14.288Z,0.00
2023-01-12T04:52:14.476Z,0.00
2023-01-12T04:53:14.691Z,0.00
2023-01-12T04:54:14.843Z,0.00
2023-01-12T04:55:15.018Z,0.00
2023-01-12T04:56:15.231Z,0.00
2023-01-12T04:57:15.360Z,0.00
2023-01-12T04:58:15.552Z,0.00
2023-01-12T04:59:15.729Z,0.00
2023-01-12T05:00:15.865Z,0.00
2023-01-12T05:01:16.129Z,0.00
2023-01-12T05:02:16.323Z,0.00
2023-01-12T05:03:16.451Z,0.00
2023-01-12T05:04:16.673Z,0.00
2023-01-12T05:05:16.768Z,0.00
2023-01-12T05:06:16.954Z,0.00
2023-01-12T05:07:17.150Z,0.00
2023-01-12T05:08:17.348Z,0.00
2023-01-12T05:09:19.791Z,0.00
2023-01-12T05:10:17.662Z,0.00
2023-01-12T05:11:17.835Z,0.00
2023-01-12T05:12:18.035Z,0.00
2023-01-12T05:13:18.212Z,0.00
2023-01-12T05:14:18.347Z,0.00
2023-01-12T05:15:18.537Z,0.00
2023-01-12T05:16:18.814Z,0.00
2023-01-12T05:17:18.935Z,0.00
2023-01-12T05:18:19.078Z,0.00
2023-01-12T05:19:19.268Z,0.00
2023-01-12T05:20:19.449Z,0.00
2023-01-12T05:21:19.668Z,0.00
2023-01-12T05:22:19.828Z,0.00
2023-01-12T05:23:19.970Z,0.00
2023-01-12T05:24:20.138Z,0.00
2023-01-12T05:25:20.342Z,0.00
2023-01-12T05:26:20.531Z,0.00
2023-01-12T05:27:20.676Z,0.00
2023-01-12T05:28:20.865Z,0.00
2023-01-12T05:29:21.043Z,0.00
2023-01-12T05:30:21.231Z,0.00
2023-01-12T05:31:21.435Z,0.00
2023-01-12T05:32:21.581Z,0.00
2023-01-12T05:33:21.743Z,0.00
2023-01-12T05:34:21.896Z,0.00
2023-01-12T05:35:22.080Z,0.00
2023-01-12T05:36:23.504Z,0.00
2023-01-12T05:37:22.432Z,0.00
2023-01-12T05:38:22.621Z,0.00
2023-01-12T05:39:22.797Z,0.00
2023-01-12T05:40:22.977Z,0.00
2023-01-12T05:41:23.171Z,0.00
2023-01-12T05:42:23.348Z,0.00
2023-01-12T05:43:23.525Z,0.00
2023-01-12T05:44:23.713Z,0.00
2023-01-12T05:45:23.890Z,0.00
2023-01-12T05:46:24.147Z,0.00
2023-01-12T05:47:24.253Z,0.00
2023-01-12T05:48:24.443Z,0.00
2023-01-12T05:49:24.620Z,0.00
2023-01-12T05:50:24.821Z,0.00
2023-01-12T05:51:25.044Z,0.00
2023-01-12T05:52:25.165Z,0.00
2023-01-12T05:53:25.338Z,0.00
2023-01-12T05:54:25.541Z,0.00
2023-01-12T05:55:25.707Z,0.00
2023-01-12T05:56:26.087Z,0.00
2023-01-12T05:57:26.078Z,0.00
2023-01-12T05:58:26.237Z,0.00
2023-01-12T05:59:26.425Z,0.00
2023-01-12T06:00:26.611Z,0.00
2023-01-12T06:01:26.840Z,0.00
2023-01-12T06:02:26.974Z,0.00
2023-01-12T06:03:27.957Z,0.00
2023-01-12T06:04:27.381Z,0.00
2023-01-12T06:05:27.459Z,0.00
2023-01-12T06:06:27.664Z,0.00
2023-01-12T06:07:27.831Z,0.00
2023-01-12T06:08:27.983Z,0.00
2023-01-12T06:09:28.185Z,0.00
2023-01-12T06:10:28.317Z,0.00
2023-01-12T06:11:28.532Z,0.00
2023-01-12T06:12:28.674Z,0.00
2023-01-12T06:13:28.891Z,0.00
2023-01-12T06:14:29.025Z,0.00
2023-01-12T06:15:29.202Z,0.00
2023-01-12T06:16:29.428Z,0.00
2023-01-12T06:17:29.560Z,0.00
2023-01-12T06:18:29.759Z,0.00
2023-01-12T06:19:29.931Z,0.00
2023-01-12T06:20:30.132Z,0.00
2023-01-12T06:21:30.337Z,0.00
2023-01-12T06:22:30.482Z,0.00
2023-01-12T06:23:34.945Z,0.00
2023-01-12T06:24:31.862Z,0.00
2023-01-12T06:25:31.027Z,0.00
2023-01-12T06:26:31.185Z,0.00
2023-01-12T06:27:31.334Z,0.00
2023-01-12T06:28:31.531Z,0.00
2023-01-12T06:29:31.674Z,0.00
2023-01-12T06:30:31.866Z,0.00
2023-01-12T06:31:32.127Z,0.00
2023-01-12T06:32:33.504Z,0.00
2023-01-12T06:33:32.404Z,0.00
2023-01-12T06:34:32.583Z,0.00
2023-01-12T06:35:32.772Z,0.00
2023-01-12T06:36:32.956Z,0.00
2023-01-12T06:37:33.106Z,0.00
2023-01-12T06:38:33.286Z,0.00
2023-01-12T06:39:33.457Z,0.00
2023-01-12T06:40:33.781Z,0.00
2023-01-12T06:41:33.819Z,0.00
2023-01-12T06:42:33.965Z,0.00
2023-01-12T06:43:34.165Z,0.00
2023-01-12T06:44:34.336Z,0.00
2023-01-12T06:45:34.519Z,0.00
2023-01-12T06:46:34.785Z,0.00
2023-01-12T06:47:34.895Z,0.00
2023-01-12T06:48:38.655Z,0.00
2023-01-12T06:49:35.245Z,0.00
2023-01-12T06:50:35.439Z,0.00
2023-01-12T06:51:35.632Z,0.00
2023-01-12T06:52:35.769Z,0.00
2023-01-12T06:53:35.961Z,0.00
2023-01-12T06:54:36.137Z,0.00
2023-01-12T06:55:36.314Z,0.00
2023-01-12T06:56:36.502Z,0.00
2023-01-12T06:57:36.677Z,0.00
2023-01-12T06:58:36.842Z,0.00
2023-01-12T06:59:38.903Z,0.00
2023-01-12T07:00:37.208Z,0.00
2023-01-12T07:01:37.520Z,0.00
2023-01-12T07:02:37.552Z,0.00
2023-01-12T07:03:37.751Z,0.00
2023-01-12T07:04:37.931Z,0.00
2023-01-12T07:05:38.115Z,0.00
2023-01-12T07:06:38.314Z,0.00
2023-01-12T07:07:40.284Z,0.00
2023-01-12T07:08:38.621Z,0.00
2023-01-12T07:09:38.786Z,0.00
2023-01-12T07:10:38.972Z,0.00
2023-01-12T07:11:39.099Z,0.00
2023-01-12T07:12:39.248Z,0.00
2023-01-12T07:13:39.427Z,0.00
2023-01-12T07:14:39.574Z,0.00
2023-01-12T07:15:39.847Z,0.00
2023-01-12T07:16:39.949Z,0.00
2023-01-12T07:17:40.117Z,0.00
2023-01-12T07:18:40.288Z,0.00
2023-01-12T07:19:41.630Z,0.00
2023-01-12T07:20:40.632Z,0.00
2023-01-12T07:21:40.821Z,0.00
2023-01-12T07:22:40.989Z,0.00
2023-01-12T07:23:41.161Z,0.00
2023-01-12T07:24:41.340Z,0.00
2023-01-12T07:25:41.513Z,0.00
2023-01-12T07:26:41.689Z,0.00
2023-01-12T07:27:41.860Z,0.00
2023-01-12T07:28:42.036Z,0.00
2023-01-12T07:29:42.230Z,0.00
2023-01-12T07:30:42.359Z,0.00
2023-01-12T07:31:42.535Z,0.00
2023-01-12T07:32:42.702Z,0.00
2023-01-12T07:33:42.865Z,0.00
2023-01-12T07:34:43.026Z,0.00
2023-01-12T07:35:43.202Z,0.00
2023-01-12T07:36:43.375Z,0.00
2023-01-12T07:37:43.561Z,0.00
2023-01-12T07:38:43.732Z,0.00
2023-01-12T07:39:43.900Z,0.00
2023-01-12T07:40:44.062Z,0.00
2023-01-12T07:41:44.242Z,0.00
2023-01-12T07:42:44.424Z,0.00
2023-01-12T07:43:44.578Z,0.00
2023-01-12T07:44:44.737Z,0.00
2023-01-12T07:45:44.914Z,5.62
2023-01-12T07:46:45.155Z,0.00
2023-01-12T07:47:45.259Z,5.62
2023-01-12T07:48:45.423Z,5.62
2023-01-12T07:49:45.613Z,0.00
2023-01-12T07:50:45.765Z,5.62
2023-01-12T07:51:45.961Z,5.62
2023-01-12T07:52:46.114Z,5.62
2023-01-12T07:53:46.293Z,5.62
2023-01-12T07:54:46.477Z,5.62
2023-01-12T07:55:46.639Z,5.62
2023-01-12T07:56:46.824Z,5.62
2023-01-12T07:57:46.997Z,5.62
2023-01-12T07:58:47.160Z,5.62
2023-01-12T07:59:47.342Z,5.62
2023-01-12T08:00:47.508Z,5.62
2023-01-12T08:01:47.710Z,5.62
2023-01-12T08:02:47.880Z,5.62
2023-01-12T08:03:48.017Z,5.62
2023-01-12T08:04:48.191Z,5.62
2023-01-12T08:05:48.470Z,5.62
2023-01-12T08:06:48.563Z,5.62
2023-01-12T08:07:48.767Z,5.62
2023-01-12T08:08:48.897Z,5.62
2023-01-12T08:09:49.066Z,5.62
2023-01-12T08:10:49.229Z,5.62
2023-01-12T08:11:49.384Z,5.62
2023-01-12T08:12:49.570Z,5.62
2023-01-12T08:13:49.832Z,5.62
2023-01-12T08:14:49.910Z,5.62
2023-01-12T08:15:50.144Z,5.62
2023-01-12T08:16:50.284Z,5.62
2023-01-12T08:17:50.481Z,5.62
2023-01-12T08:18:50.636Z,5.62
2023-01-12T08:19:50.860Z,5.62
2023-01-12T08:20:50.981Z,5.62
2023-01-12T08:21:51.193Z,5.62
2023-01-12T08:22:51.351Z,5.62
2023-01-12T08:23:51.563Z,11.25
2023-01-12T08:24:51.675Z,11.25
2023-01-12T08:25:51.837Z,11.25
2023-01-12T08:26:52.013Z,11.25
2023-01-12T08:27:52.164Z,11.25
2023-01-12T08:28:52.347Z,11.25
2023-01-12T08:29:52.502Z,11.25
2023-01-12T08:30:52.659Z,11.25
2023-01-12T08:31:52.869Z,11.25
2023-01-12T08:32:53.053Z,11.25
2023-01-12T08:33:53.251Z,11.25
2023-01-12T08:34:53.385Z,11.25
2023-01-12T08:35:53.554Z,11.25
2023-01-12T08:36:53.724Z,16.88
2023-01-12T08:37:53.879Z,16.88
2023-01-12T08:38:54.117Z,16.88
2023-01-12T08:39:54.235Z,16.88
2023-01-12T08:40:54.417Z,16.88
2023-01-12T08:41:54.566Z,16.88
2023-01-12T08:42:54.757Z,16.88
2023-01-12T08:43:54.935Z,16.88
2023-01-12T08:44:55.076Z,16.88
2023-01-12T08:45:55.276Z,16.88
2023-01-12T08:46:55.479Z,16.88
2023-01-12T08:47:55.617Z,16.88
2023-01-12T08:48:55.767Z,16.88
2023-01-12T08:49:55.984Z,16.88
2023-01-12T08:50:56.098Z,16.88
2023-01-12T08:51:56.301Z,16.88
2023-01-12T08:52:56.464Z,16.88
2023-01-12T08:53:56.651Z,16.88
2023-01-12T08:54:56.794Z,16.88
2023-01-12T08:55:56.949Z,11.25
2023-01-12T08:56:57.128Z,11.25
2023-01-12T08:57:57.287Z,11.25
2023-01-12T08:58:57.464Z,11.25
2023-01-12T08:59:57.739Z,11.25
2023-01-12T09:00:57.881Z,11.25
2023-01-12T09:01:58.077Z,11.25
2023-01-12T09:02:58.138Z,11.25
2023-01-12T09:03:58.319Z,11.25
2023-01-12T09:04:58.483Z,11.25
2023-01-12T09:05:58.642Z,11.25
2023-01-12T09:07:00.204Z,11.25
2023-01-12T09:07:58.988Z,11.25
2023-01-12T09:08:59.162Z,16.88
2023-01-12T09:09:59.275Z,16.88
2023-01-12T09:10:59.474Z,22.50
2023-01-12T09:11:59.642Z,22.50
2023-01-12T09:12:59.813Z,16.88
2023-01-12T09:13:59.956Z,16.88
2023-01-12T09:15:00.125Z,22.50
2023-01-12T09:16:11.734Z,22.50
2023-01-12T09:17:01.590Z,22.50
2023-01-12T09:18:00.656Z,22.50
2023-01-12T09:19:00.862Z,28.12
2023-01-12T09:20:01.020Z,28.12
2023-01-12T09:21:01.193Z,28.12
2023-01-12T09:22:01.379Z,28.12
2023-01-12T09:23:01.548Z,33.75
2023-01-12T09:24:01.688Z,39.38
2023-01-12T09:25:01.888Z,39.38
2023-01-12T09:26:02.056Z,39.38
2023-01-12T09:27:02.223Z,39.38
2023-01-12T09:28:02.387Z,39.38
2023-01-12T09:29:02.554Z,33.75
2023-01-12T09:30:02.769Z,28.12
2023-01-12T09:31:02.906Z,22.50
2023-01-12T09:32:03.119Z,22.50
2023-01-12T09:33:03.239Z,22.50
2023-01-12T09:34:03.395Z,22.50
2023-01-12T09:35:03.589Z,28.12
2023-01-12T09:36:03.717Z,28.12
2023-01-12T09:37:03.887Z,33.75
2023-01-12T09:38:04.033Z,39.38
2023-01-12T09:39:04.427Z,56.25
2023-01-12T09:40:04.432Z,67.50
2023-01-12T09:41:04.580Z,101.25
2023-01-12T09:42:04.757Z,106.88
2023-01-12T09:43:04.890Z,106.88
2023-01-12T09:44:05.074Z,95.62
2023-01-12T09:45:05.258Z,90.00
2023-01-12T09:46:05.460Z,45.00
2023-01-12T09:47:05.612Z,33.75
2023-01-12T09:48:05.753Z,22.50
2023-01-12T09:49:05.914Z,22.50
2023-01-12T09:50:10.209Z,22.50
2023-01-12T09:51:06.256Z,22.50
2023-01-12T09:52:06.413Z,22.50
2023-01-12T09:53:06.578Z,22.50
2023-01-12T09:54:06.795Z,28.12
2023-01-12T09:55:06.942Z,28.12
2023-01-12T09:56:07.116Z,28.12
2023-01-12T09:57:09.273Z,28.12
2023-01-12T09:58:07.486Z,28.12
2023-01-12T09:59:07.653Z,28.12
2023-01-12T10:00:07.821Z,33.75
2023-01-12T10:01:10.653Z,33.75
2023-01-12T10:02:08.266Z,39.38
2023-01-12T10:03:08.416Z,39.38
2023-01-12T10:04:08.530Z,33.75
2023-01-12T10:05:08.684Z,33.75
2023-01-12T10:06:08.892Z,33.75
2023-01-12T10:07:09.010Z,33.75
2023-01-12T10:08:09.169Z,33.75
2023-01-12T10:09:09.338Z,33.75
2023-01-12T10:10:09.528Z,33.75
2023-01-12T10:11:09.648Z,39.38
2023-01-12T10:12:09.807Z,39.38
2023-01-12T10:13:09.966Z,45.00
2023-01-12T10:14:10.143Z,50.62
2023-01-12T10:15:10.325Z,50.62
2023-01-12T10:16:10.530Z,50.62
2023-01-12T10:17:10.604Z,50.62
2023-01-12T10:18:10.802Z,50.62
2023-01-12T10:19:10.952Z,50.62
2023-01-12T10:20:11.126Z,45.00
2023-01-12T10:21:11.300Z,45.00
2023-01-12T10:22:11.504Z,33.75
2023-01-12T10:23:11.666Z,28.12
2023-01-12T10:24:11.839Z,28.12
2023-01-12T10:25:12.043Z,22.50
2023-01-12T10:26:12.167Z,22.50
2023-01-12T10:27:12.334Z,22.50
2023-01-12T10:28:12.491Z,22.50
2023-01-12T10:29:12.684Z,22.50
2023-01-12T10:30:12.875Z,22.50
2023-01-12T10:31:13.026Z,16.88
2023-01-12T10:32:13.532Z,16.88
2023-01-12T10:33:13.338Z,16.88
2023-01-12T10:34:13.494Z,16.88
2023-01-12T10:35:13.725Z,16.88
2023-01-12T10:36:13.835Z,16.88
2023-01-12T10:37:14.086Z,16.88
2023-01-12T10:38:14.209Z,16.88
2023-01-12T10:39:14.357Z,16.88
2023-01-12T10:40:14.545Z,16.88
2023-01-12T10:41:14.713Z,22.50
2023-01-12T10:42:14.911Z,22.50
2023-01-12T10:43:19.545Z,22.50
2023-01-12T10:44:16.212Z,22.50
2023-01-12T10:45:15.431Z,22.50
2023-01-12T10:46:15.608Z,22.50
2023-01-12T10:47:15.748Z,16.88
2023-01-12T10:48:15.900Z,16.88
2023-01-12T10:49:16.070Z,16.88
2023-01-12T10:50:16.242Z,16.88
2023-01-12T10:51:16.416Z,16.88
2023-01-12T10:52:16.582Z,16.88
2023-01-12T10:53:16.742Z,16.88
2023-01-12T10:54:16.904Z,16.88
2023-01-12T10:55:17.065Z,16.88
2023-01-12T10:56:17.263Z,16.88
2023-01-12T10:57:17.385Z,16.88
2023-01-12T10:58:17.548Z,16.88
2023-01-12T10:59:17.721Z,16.88
2023-01-12T11:00:17.890Z,16.88
2023-01-12T11:01:18.233Z,22.50
2023-01-12T11:02:18.466Z,22.50
2023-01-12T11:03:18.410Z,22.50
2023-01-12T11:04:18.591Z,22.50
2023-01-12T11:05:18.744Z,22.50
2023-01-12T11:06:18.938Z,22.50
2023-01-12T11:07:19.094Z,22.50
2023-01-12T11:08:19.226Z,16.88
2023-01-12T11:09:19.424Z,22.50
2023-01-12T11:10:20.106Z,16.88
2023-01-12T11:11:19.715Z,16.88
2023-01-12T11:12:19.890Z,11.25
2023-01-12T11:13:20.014Z,11.25
2023-01-12T11:14:24.108Z,11.25
2023-01-12T11:15:20.336Z,11.25
2023-01-12T11:16:20.549Z,11.25
2023-01-12T11:17:20.708Z,11.25
2023-01-12T11:18:20.851Z,11.25
2023-01-12T11:19:21.008Z,11.25
2023-01-12T11:20:21.195Z,11.25
2023-01-12T11:21:21.360Z,11.25
2023-01-12T11:22:21.566Z,11.25
2023-01-12T11:23:21.691Z,11.25
2023-01-12T11:24:21.906Z,11.25
2023-01-12T11:25:22.038Z,11.25
2023-01-12T11:26:22.222Z,11.25
2023-01-12T11:27:22.402Z,11.25
2023-01-12T11:28:22.580Z,11.25
2023-01-12T11:29:22.732Z,5.62
2023-01-12T11:30:22.950Z,5.62
2023-01-12T11:31:23.110Z,11.25
2023-01-12T11:32:23.292Z,11.25
2023-01-12T11:33:23.457Z,11.25
2023-01-12T11:34:23.628Z,16.88
2023-01-12T11:35:23.790Z,22.50
2023-01-12T11:36:23.970Z,22.50
2023-01-12T11:37:24.126Z,22.50
2023-01-12T11:38:24.295Z,22.50
2023-01-12T11:39:24.463Z,22.50
2023-01-12T11:40:24.632Z,16.88
2023-01-12T11:41:24.821Z,16.88
2023-01-12T11:42:24.984Z,16.88
2023-01-12T11:43:25.149Z,16.88
2023-01-12T11:44:25.306Z,16.88
2023-01-12T11:45:25.499Z,16.88
2023-01-12T11:46:25.765Z,16.88
2023-01-12T11:47:25.842Z,16.88
2023-01-12T11:48:25.996Z,16.88
2023-01-12T11:49:26.157Z,16.88
2023-01-12T11:50:26.346Z,16.88
2023-01-12T11:51:26.523Z,16.88
2023-01-12T11:52:26.683Z,16.88
2023-01-12T11:53:26.838Z,22.50
2023-01-12T11:54:26.995Z,16.88
2023-01-12T11:55:27.197Z,16.88
2023-01-12T11:56:27.352Z,16.88
2023-01-12T11:57:27.490Z,22.50
2023-01-12T11:58:27.687Z,22.50
2023-01-12T11:59:27.852Z,22.50
2023-01-12T12:00:28.018Z,22.50
2023-01-12T12:01:28.246Z,22.50
2023-01-12T12:02:28.462Z,22.50
2023-01-12T12:03:28.518Z,22.50
2023-01-12T12:04:28.666Z,22.50
2023-01-12T12:05:28.872Z,16.88
2023-01-12T12:06:29.008Z,16.88
2023-01-12T12:07:29.146Z,16.88
2023-01-12T12:08:29.336Z,22.50
2023-01-12T12:09:29.490Z,22.50
2023-01-12T12:10:29.663Z,22.50
2023-01-12T12:11:29.839Z,22.50
2023-01-12T12:12:30.006Z,22.50
2023-01-12T12:13:30.148Z,22.50
2023-01-12T12:14:30.318Z,16.88
2023-01-12T12:15:30.527Z,16.88
2023-01-12T12:16:30.670Z,16.88
2023-01-12T12:17:30.822Z,16.88
2023-01-12T12:18:30.992Z,16.88
2023-01-12T12:19:31.180Z,16.88
2023-01-12T12:20:31.307Z,22.50
2023-01-12T12:21:31.495Z,28.12
2023-01-12T12:22:31.635Z,33.75
2023-01-12T12:23:31.795Z,33.75
2023-01-12T12:24:31.978Z,33.75
2023-01-12T12:25:32.165Z,33.75
2023-01-12T12:26:32.300Z,33.75
2023-01-12T12:27:32.470Z,28.12
2023-01-12T12:28:32.624Z,22.50
2023-01-12T12:29:32.850Z,22.50
2023-01-12T12:30:32.996Z,22.50
2023-01-12T12:31:33.170Z,22.50
2023-01-12T12:32:33.341Z,16.88
2023-01-12T12:33:33.499Z,16.88
2023-01-12T12:34:33.675Z,16.88
2023-01-12T12:35:33.813Z,16.88
2023-01-12T12:36:33.970Z,11.25
2023-01-12T12:37:34.128Z,11.25
2023-01-12T12:38:34.320Z,11.25
2023-01-12T12:39:34.523Z,16.88
2023-01-12T12:40:34.656Z,16.88
2023-01-12T12:41:34.826Z,16.88
2023-01-12T12:42:35.114Z,16.88
2023-01-12T12:43:35.183Z,16.88
2023-01-12T12:44:35.370Z,16.88
2023-01-12T12:45:35.540Z,11.25
2023-01-12T12:46:35.751Z,11.25
2023-01-12T12:47:35.865Z,11.25
2023-01-12T12:48:36.075Z,11.25
2023-01-12T12:49:36.261Z,16.88
2023-01-12T12:50:36.437Z,16.88
2023-01-12T12:51:36.575Z,11.25
2023-01-12T12:52:36.722Z,11.25
2023-01-12T12:53:36.889Z,11.25
2023-01-12T12:54:37.086Z,11.25
2023-01-12T12:55:37.248Z,11.25
2023-01-12T12:56:37.421Z,11.25
2023-01-12T12:57:37.596Z,11.25
2023-01-12T12:58:37.770Z,11.25
2023-01-12T12:59:37.908Z,11.25
2023-01-12T13:00:38.121Z,11.25
2023-01-12T13:01:38.346Z,16.88
2023-01-12T13:02:38.439Z,11.25
2023-01-12T13:03:38.576Z,11.25
2023-01-12T13:04:38.748Z,11.25
2023-01-12T13:05:38.912Z,11.25
2023-01-12T13:06:39.100Z,11.25
2023-01-12T13:07:39.262Z,11.25
2023-01-12T13:08:39.424Z,11.25
2023-01-12T13:09:39.663Z,11.25
2023-01-12T13:10:39.797Z,11.25